createdAt,value
2023-03-10T00:00:08.849Z,2.21
2023-03-10T00:02:36.626Z,2.36
2023-03-10T00:05:04.788Z,2.21
2023-03-10T00:07:32.493Z,2.29
2023-03-10T00:10:00.132Z,2.14
2023-03-10T00:12:27.927Z,2.30
2023-03-10T00:14:57.379Z,1.72
2023-03-10T00:17:25.114Z,2.10
2023-03-10T00:19:52.817Z,2.25
2023-03-10T00:22:20.537Z,2.23
2023-03-10T00:24:48.268Z,2.21
2023-03-10T00:27:15.931Z,2.19
2023-03-10T00:29:43.631Z,2.18
2023-03-10T00:32:12.707Z,2.19
2023-03-10T00:34:40.406Z,2.13
2023-03-10T00:37:08.100Z,2.12
2023-03-10T00:39:35.735Z,2.25
2023-03-10T00:42:03.492Z,2.15
2023-03-10T00:44:31.181Z,1.88
2023-03-10T00:46:58.831Z,2.19
2023-03-10T00:49:27.909Z,2.01
2023-03-10T00:51:55.540Z,2.45
2023-03-10T00:54:23.216Z,2.44
2023-03-10T00:56:50.888Z,2.42
2023-03-10T00:59:18.559Z,2.27
2023-03-10T01:01:46.303Z,2.39
2023-03-10T01:04:16.170Z,2.48
2023-03-10T01:06:47.563Z,2.00
2023-03-10T01:09:15.524Z,2.23
2023-03-10T01:11:43.359Z,1.86
2023-03-10T01:14:14.315Z,2.27
2023-03-10T01:16:41.965Z,2.37
2023-03-10T01:19:09.952Z,2.46
2023-03-10T01:21:39.290Z,2.34
2023-03-10T01:24:08.929Z,2.33
2023-03-10T01:26:36.637Z,2.52
2023-03-10T01:29:04.366Z,2.33
2023-03-10T01:31:32.170Z,2.38
2023-03-10T01:33:59.895Z,2.64
2023-03-10T01:36:28.047Z,2.10
2023-03-10T01:38:57.456Z,2.64
2023-03-10T01:41:26.833Z,2.10
2023-03-10T01:43:56.128Z,2.36
2023-03-10T01:46:44.603Z,2.23
2023-03-10T01:49:17.975Z,2.26
2023-03-10T01:51:50.077Z,2.41
2023-03-10T01:54:20.342Z,2.40
2023-03-10T01:56:51.069Z,2.33
2023-03-10T01:59:19.458Z,2.32
2023-03-10T02:01:47.384Z,2.49
2023-03-10T02:04:18.348Z,2.32
2023-03-10T02:06:47.520Z,2.39
2023-03-10T02:09:16.082Z,2.63
2023-03-10T02:11:44.151Z,2.30
2023-03-10T02:14:13.492Z,2.23
2023-03-10T02:16:41.315Z,2.67
2023-03-10T02:19:15.917Z,2.47
2023-03-10T02:21:45.573Z,2.63
2023-03-10T02:24:17.460Z,2.28
2023-03-10T02:26:51.656Z,2.26
2023-03-10T02:29:24.034Z,2.30
2023-03-10T02:31:52.449Z,2.42
2023-03-10T02:34:20.388Z,2.34
2023-03-10T02:36:48.051Z,2.75
2023-03-10T02:39:15.771Z,2.60
2023-03-10T02:41:45.434Z,2.53
2023-03-10T02:44:15.623Z,2.45
2023-03-10T02:46:44.717Z,2.44
2023-03-10T02:49:12.564Z,2.65
2023-03-10T02:51:43.182Z,2.40
2023-03-10T02:54:11.311Z,2.25
2023-03-10T02:56:39.704Z,2.27
2023-03-10T02:59:08.098Z,2.42
2023-03-10T03:01:36.227Z,2.38
2023-03-10T03:04:05.427Z,2.29
2023-03-10T03:06:33.137Z,2.24
2023-03-10T03:09:00.852Z,2.19
2023-03-10T03:11:28.851Z,2.17
2023-03-10T03:13:56.564Z,2.37
2023-03-10T03:16:24.292Z,2.40
2023-03-10T03:18:52.175Z,2.35
2023-03-10T03:21:21.513Z,2.16
2023-03-10T03:23:49.379Z,2.50
2023-03-10T03:26:19.207Z,2.30
2023-03-10T03:28:46.942Z,2.22
2023-03-10T03:31:16.760Z,2.30
2023-03-10T03:33:44.828Z,2.31
2023-03-10T03:36:12.763Z,2.09
2023-03-10T03:38:41.887Z,2.23
2023-03-10T03:41:10.276Z,2.39
2023-03-10T03:43:37.988Z,2.49
2023-03-10T03:46:06.241Z,2.42
2023-03-10T03:48:34.884Z,2.16
2023-03-10T03:51:03.377Z,2.23
2023-03-10T03:53:31.652Z,2.36
2023-03-10T03:56:00.840Z,2.57
2023-03-10T03:58:28.592Z,2.39
2023-03-10T04:00:56.294Z,2.35
2023-03-10T04:03:24.089Z,2.57
2023-03-10T04:05:51.818Z,2.46
2023-03-10T04:08:19.491Z,2.22
2023-03-10T04:10:51.674Z,2.40
2023-03-10T04:13:21.028Z,2.55
2023-03-10T04:15:48.792Z,2.28
2023-03-10T04:18:16.532Z,2.05
2023-03-10T04:20:44.183Z,2.39
2023-03-10T04:23:11.809Z,2.36
2023-03-10T04:25:42.231Z,2.51
2023-03-10T04:28:09.986Z,2.11
2023-03-10T04:30:39.207Z,2.29
2023-03-10T04:33:07.631Z,2.19
2023-03-10T04:35:35.318Z,2.39
2023-03-10T04:38:03.987Z,2.32
2023-03-10T04:40:31.656Z,2.16
2023-03-10T04:42:59.408Z,1.94
2023-03-10T04:45:27.132Z,2.08
2023-03-10T04:47:56.222Z,2.22
2023-03-10T04:50:23.909Z,2.25
2023-03-10T04:52:51.655Z,2.17
2023-03-10T04:55:19.439Z,1.91
2023-03-10T04:57:47.175Z,1.94
2023-03-10T05:00:15.263Z,2.14
2023-03-10T05:02:43.434Z,2.01
2023-03-10T05:05:13.196Z,2.14
2023-03-10T05:07:41.335Z,2.21
2023-03-10T05:10:10.276Z,2.18
2023-03-10T05:12:38.725Z,2.14
2023-03-10T05:15:07.694Z,1.81
2023-03-10T05:17:35.392Z,2.08
2023-03-10T05:20:04.102Z,2.03
2023-03-10T05:22:33.098Z,2.10
2023-03-10T05:25:00.829Z,2.24
2023-03-10T05:27:28.509Z,2.00
2023-03-10T05:29:56.270Z,1.91
2023-03-10T05:32:24.076Z,1.78
2023-03-10T05:34:52.536Z,1.89
2023-03-10T05:37:20.263Z,1.92
2023-03-10T05:39:49.275Z,2.01
2023-03-10T05:42:16.987Z,1.91
2023-03-10T05:44:44.646Z,1.75
2023-03-10T05:47:14.001Z,2.09
2023-03-10T05:49:41.683Z,1.89
2023-03-10T05:52:09.399Z,2.06
2023-03-10T05:54:37.355Z,1.89
2023-03-10T05:57:06.871Z,2.16
2023-03-10T05:59:34.650Z,2.36
2023-03-10T06:02:02.380Z,1.77
2023-03-10T06:04:32.252Z,2.15
2023-03-10T06:07:00.761Z,1.98
2023-03-10T06:09:28.610Z,2.39
2023-03-10T06:11:56.255Z,2.03
2023-03-10T06:14:25.780Z,1.80
2023-03-10T06:16:54.956Z,2.10
2023-03-10T06:19:23.830Z,1.87
2023-03-10T06:21:51.588Z,1.87
2023-03-10T06:24:19.394Z,1.72
2023-03-10T06:26:47.103Z,2.01
2023-03-10T06:29:14.795Z,2.20
2023-03-10T06:31:43.907Z,2.07
2023-03-10T06:34:11.705Z,2.17
2023-03-10T06:36:40.408Z,1.95
2023-03-10T06:39:08.228Z,2.06
2023-03-10T06:41:36.740Z,2.05
2023-03-10T06:44:04.472Z,1.95
2023-03-10T06:46:32.247Z,1.72
2023-03-10T06:49:01.281Z,2.05
2023-03-10T06:51:28.930Z,2.21
2023-03-10T06:53:57.577Z,1.58
2023-03-10T06:56:25.295Z,1.92
2023-03-10T06:58:53.011Z,2.44
2023-03-10T07:01:22.771Z,2.07
2023-03-10T07:03:50.581Z,1.96
2023-03-10T07:06:19.652Z,2.16
2023-03-10T07:08:47.428Z,2.53
2023-03-10T07:11:15.448Z,2.42
2023-03-10T07:13:43.242Z,2.57
2023-03-10T07:16:11.154Z,2.95
2023-03-10T07:18:38.846Z,2.51
2023-03-10T07:21:08.742Z,2.54
2023-03-10T07:23:37.995Z,2.26
2023-03-10T07:26:08.604Z,2.46
2023-03-10T07:28:36.835Z,2.98
2023-03-10T07:31:05.431Z,2.39
2023-03-10T07:33:33.277Z,2.68
2023-03-10T07:36:01.119Z,2.46
2023-03-10T07:38:28.848Z,2.47
2023-03-10T07:40:58.369Z,2.57
2023-03-10T07:43:26.783Z,2.85
2023-03-10T07:45:54.804Z,3.11
2023-03-10T07:48:22.507Z,3.25
2023-03-10T07:50:56.955Z,2.49
2023-03-10T07:53:24.619Z,3.01
2023-03-10T07:55:52.544Z,2.66
2023-03-10T07:58:21.938Z,2.74
2023-03-10T08:00:54.948Z,3.07
2023-03-10T08:03:22.816Z,3.31
2023-03-10T08:05:50.625Z,3.16
2023-03-10T08:08:18.786Z,2.34
2023-03-10T08:10:46.494Z,2.64
2023-03-10T08:13:14.603Z,2.81
2023-03-10T08:15:43.746Z,2.80
2023-03-10T08:18:11.476Z,2.86
2023-03-10T08:20:40.594Z,2.92
2023-03-10T08:23:08.431Z,2.84
2023-03-10T08:25:36.581Z,2.53
2023-03-10T08:28:04.405Z,2.52
2023-03-10T08:30:32.099Z,2.91
2023-03-10T08:33:01.271Z,3.33
2023-03-10T08:35:29.094Z,2.71
2023-03-10T08:37:56.805Z,3.16
2023-03-10T08:40:24.725Z,3.46
2023-03-10T08:42:53.117Z,2.80
2023-03-10T08:45:21.118Z,2.68
2023-03-10T08:47:48.813Z,3.09
2023-03-10T08:50:18.077Z,2.97
2023-03-10T08:52:45.845Z,2.99
2023-03-10T08:55:13.554Z,2.98
2023-03-10T08:57:41.257Z,2.80
2023-03-10T09:00:12.567Z,2.79
2023-03-10T09:02:40.531Z,2.89
2023-03-10T09:05:10.466Z,2.79
2023-03-10T09:07:39.553Z,2.80
2023-03-10T09:10:07.569Z,2.90
2023-03-10T09:12:39.003Z,3.02
2023-03-10T09:15:07.880Z,3.05
2023-03-10T09:17:35.623Z,2.86
2023-03-10T09:20:06.411Z,3.00
2023-03-10T09:22:34.091Z,2.89
2023-03-10T09:25:03.239Z,3.08
2023-03-10T09:27:30.960Z,2.99
2023-03-10T09:30:00.658Z,3.00
2023-03-10T09:32:29.309Z,2.92
2023-03-10T09:34:57.065Z,2.95
2023-03-10T09:37:24.709Z,3.23
2023-03-10T09:39:52.645Z,3.00
2023-03-10T09:42:39.045Z,2.90
2023-03-10T09:45:26.781Z,3.10
2023-03-10T09:48:06.250Z,3.10
2023-03-10T09:50:36.167Z,3.26
2023-03-10T09:53:09.053Z,3.40
2023-03-10T09:55:47.590Z,3.33
2023-03-10T09:58:28.053Z,3.55
2023-03-10T10:00:55.829Z,3.18
2023-03-10T10:03:25.289Z,3.00
2023-03-10T10:05:55.341Z,3.39
2023-03-10T10:08:28.438Z,3.37
2023-03-10T10:10:58.352Z,3.35
2023-03-10T10:13:30.542Z,3.57
2023-03-10T10:16:21.239Z,3.13
2023-03-10T10:18:52.452Z,3.46
2023-03-10T10:21:25.971Z,3.53
2023-03-10T10:23:56.026Z,3.43
2023-03-10T10:26:26.786Z,3.35
2023-03-10T10:28:56.993Z,3.55
2023-03-10T10:31:27.319Z,3.60
2023-03-10T10:33:57.630Z,3.63
2023-03-10T10:36:27.801Z,3.29
2023-03-10T10:38:56.443Z,3.52
2023-03-10T10:41:27.327Z,3.22
2023-03-10T10:43:59.129Z,3.34
2023-03-10T10:46:29.288Z,3.44
2023-03-10T10:49:05.936Z,3.11
2023-03-10T10:51:35.968Z,3.05
2023-03-10T10:54:06.302Z,3.19
2023-03-10T10:56:34.103Z,3.51
2023-03-10T10:59:06.685Z,3.13
2023-03-10T11:01:53.084Z,3.69
2023-03-10T11:04:21.857Z,3.99
2023-03-10T11:06:50.904Z,3.86
2023-03-10T11:09:20.971Z,3.21
2023-03-10T11:11:55.385Z,3.44
2023-03-10T11:14:35.621Z,3.54
2023-03-10T11:17:08.429Z,3.77
2023-03-10T11:19:49.696Z,3.64
2023-03-10T11:22:26.590Z,3.35
2023-03-10T11:24:57.239Z,3.11
2023-03-10T11:27:28.088Z,3.26
2023-03-10T11:30:05.608Z,3.49
2023-03-10T11:32:40.991Z,3.23
2023-03-10T11:35:17.711Z,3.12
2023-03-10T11:37:48.537Z,3.47
2023-03-10T11:40:19.732Z,3.24
2023-03-10T11:42:52.580Z,3.50
2023-03-10T11:45:29.145Z,3.15
2023-03-10T11:48:06.860Z,3.03
2023-03-10T11:50:41.198Z,3.34
2023-03-10T11:53:13.555Z,3.09
2023-03-10T11:55:42.340Z,3.03
2023-03-10T11:58:19.983Z,3.00
2023-03-10T12:00:50.356Z,3.21
2023-03-10T12:03:21.928Z,3.09
2023-03-10T12:05:53.404Z,3.12
2023-03-10T12:08:23.925Z,3.15
2023-03-10T12:10:52.328Z,2.98
2023-03-10T12:13:24.478Z,3.25
2023-03-10T12:15:57.236Z,2.99
2023-03-10T12:18:26.908Z,3.06
2023-03-10T12:21:16.218Z,3.22
2023-03-10T12:23:45.273Z,3.26
2023-03-10T12:26:13.069Z,3.32
2023-03-10T12:28:40.822Z,3.22
2023-03-10T12:31:11.427Z,3.14
2023-03-10T12:33:47.324Z,2.99
2023-03-10T12:36:17.874Z,3.03
2023-03-10T12:38:48.101Z,3.03
2023-03-10T12:41:46.984Z,3.25
2023-03-10T12:44:33.368Z,2.84
2023-03-10T12:47:10.619Z,3.02
2023-03-10T12:49:45.434Z,2.77
2023-03-10T12:52:22.906Z,2.86
2023-03-10T12:55:02.978Z,3.08
2023-03-10T12:57:35.396Z,3.02
2023-03-10T13:00:07.212Z,3.06
2023-03-10T13:02:39.383Z,2.88
2023-03-10T13:05:15.036Z,3.06
2023-03-10T13:07:46.648Z,2.88
2023-03-10T13:10:18.320Z,3.31
2023-03-10T13:12:49.339Z,2.97
2023-03-10T13:15:24.878Z,3.02
2023-03-10T13:17:55.176Z,2.75
2023-03-10T13:20:23.794Z,3.27
2023-03-10T13:22:55.732Z,3.00
2023-03-10T13:25:23.566Z,2.83
2023-03-10T13:27:53.788Z,2.77
2023-03-10T13:30:23.114Z,2.52
2023-03-10T13:32:55.049Z,2.63
2023-03-10T13:35:26.108Z,2.59
2023-03-10T13:38:12.250Z,2.87
2023-03-10T13:40:41.478Z,2.62
2023-03-10T13:43:26.557Z,2.31
2023-03-10T13:45:55.824Z,2.57
2023-03-10T13:48:24.393Z,2.59
2023-03-10T13:51:05.688Z,2.36
2023-03-10T13:53:33.508Z,2.19
2023-03-10T13:56:01.263Z,2.57
2023-03-10T13:58:30.285Z,2.35
2023-03-10T14:01:00.772Z,2.72
2023-03-10T14:03:30.996Z,2.51
2023-03-10T14:05:59.135Z,2.35
2023-03-10T14:08:30.867Z,2.35
2023-03-10T14:11:23.671Z,2.55
2023-03-10T14:13:52.722Z,2.33
2023-03-10T14:16:20.445Z,1.79
2023-03-10T14:18:48.179Z,1.55
2023-03-10T14:21:30.008Z,1.89
2023-03-10T14:24:03.906Z,1.74
2023-03-10T14:26:32.590Z,1.56
2023-03-10T14:29:02.977Z,1.81
2023-03-10T14:31:30.679Z,1.98
2023-03-10T14:33:58.379Z,1.98
2023-03-10T14:36:26.165Z,2.15
2023-03-10T14:38:53.843Z,2.00
2023-03-10T14:41:24.526Z,1.73
2023-03-10T14:43:52.800Z,1.44
2023-03-10T14:46:22.145Z,1.81
2023-03-10T14:48:50.017Z,1.76
2023-03-10T14:51:34.683Z,1.25
2023-03-10T14:54:03.752Z,1.15
2023-03-10T14:56:31.869Z,0.92
2023-03-10T14:59:02.251Z,0.88
2023-03-10T15:01:31.869Z,0.98
2023-03-10T15:03:59.601Z,1.02
2023-03-10T15:06:27.245Z,0.98
2023-03-10T15:08:54.930Z,0.76
2023-03-10T15:11:36.191Z,0.87
2023-03-10T15:14:05.595Z,0.63
2023-03-10T15:16:34.663Z,0.69
2023-03-10T15:19:02.374Z,0.93
2023-03-10T15:21:30.027Z,0.86
2023-03-10T15:23:57.673Z,1.02
2023-03-10T15:26:25.335Z,0.74
2023-03-10T15:28:53.211Z,0.72
2023-03-10T15:31:21.140Z,0.67
2023-03-10T15:33:50.508Z,0.46
2023-03-10T15:36:19.160Z,0.58
2023-03-10T15:38:46.882Z,0.46
2023-03-10T15:41:14.778Z,0.57
2023-03-10T15:43:42.474Z,0.71
2023-03-10T15:46:10.523Z,0.46
2023-03-10T15:48:38.271Z,0.47
2023-03-10T15:51:10.448Z,0.66
2023-03-10T15:53:38.462Z,0.53
2023-03-10T15:56:07.240Z,0.51
2023-03-10T15:58:35.084Z,0.67
2023-03-10T16:01:07.660Z,0.68
2023-03-10T16:03:36.239Z,0.88
2023-03-10T16:06:04.050Z,0.75
2023-03-10T16:08:37.337Z,0.64
2023-03-10T16:11:06.534Z,0.74
2023-03-10T16:13:34.263Z,0.98
2023-03-10T16:16:06.184Z,0.97
2023-03-10T16:18:34.365Z,0.23
2023-03-10T16:21:03.371Z,0.27
2023-03-10T16:23:34.136Z,0.24
2023-03-10T16:26:06.884Z,0.68
2023-03-10T16:28:34.896Z,0.92
2023-03-10T16:31:03.736Z,0.93
2023-03-10T16:33:32.040Z,1.24
2023-03-10T16:36:00.328Z,1.30
2023-03-10T16:38:28.369Z,1.13
2023-03-10T16:40:57.951Z,1.14
2023-03-10T16:43:29.266Z,1.16
2023-03-10T16:46:07.655Z,0.99
2023-03-10T16:48:37.302Z,1.14
2023-03-10T16:51:19.371Z,0.98
2023-03-10T16:53:47.244Z,1.06
2023-03-10T16:56:16.739Z,1.07
2023-03-10T16:58:44.539Z,1.16
2023-03-10T17:01:12.273Z,1.20
2023-03-10T17:03:40.527Z,1.11
2023-03-10T17:06:09.937Z,1.03
2023-03-10T17:08:37.845Z,1.29
2023-03-10T17:11:06.316Z,1.07
2023-03-10T17:13:36.679Z,1.28
2023-03-10T17:16:12.415Z,1.16
2023-03-10T17:18:40.201Z,0.98
2023-03-10T17:21:15.069Z,1.48
2023-03-10T17:23:43.145Z,1.28
2023-03-10T17:26:11.455Z,1.18
2023-03-10T17:28:41.590Z,1.26
2023-03-10T17:31:10.011Z,1.14
2023-03-10T17:33:37.675Z,1.11
2023-03-10T17:36:06.521Z,1.24
2023-03-10T17:38:34.269Z,1.36
2023-03-10T17:41:04.262Z,1.26
2023-03-10T17:43:34.598Z,1.09
2023-03-10T17:46:06.212Z,1.19
2023-03-10T17:48:34.426Z,1.23
2023-03-10T17:51:02.191Z,1.07
2023-03-10T17:53:30.626Z,1.15
2023-03-10T17:55:58.651Z,1.18
2023-03-10T17:58:26.985Z,1.11
2023-03-10T18:00:54.885Z,1.21
2023-03-10T18:03:24.062Z,1.33
2023-03-10T18:05:51.791Z,1.37
2023-03-10T18:08:19.497Z,1.24
2023-03-10T18:10:47.187Z,1.24
2023-03-10T18:13:14.906Z,1.28
2023-03-10T18:15:42.659Z,1.35
2023-03-10T18:18:10.384Z,1.27
2023-03-10T18:20:39.443Z,1.30
2023-03-10T18:23:07.182Z,1.35
2023-03-10T18:25:34.906Z,1.33
2023-03-10T18:28:02.620Z,1.38
2023-03-10T18:30:30.289Z,1.46
2023-03-10T18:32:57.977Z,1.34
2023-03-10T18:35:25.647Z,1.39
2023-03-10T18:37:55.631Z,1.28
2023-03-10T18:40:23.592Z,1.44
2023-03-10T18:42:51.251Z,1.48
2023-03-10T18:45:18.983Z,1.47
2023-03-10T18:47:46.976Z,1.57
2023-03-10T18:50:15.198Z,1.50
2023-03-10T18:52:43.039Z,1.60
2023-03-10T18:55:13.150Z,1.58
2023-03-10T18:57:41.170Z,1.52
2023-03-10T19:00:14.428Z,1.57
2023-03-10T19:02:42.464Z,1.50
2023-03-10T19:05:13.288Z,1.45
2023-03-10T19:07:41.089Z,2.37
2023-03-10T19:10:10.072Z,2.79
2023-03-10T19:12:39.341Z,2.62
2023-03-10T19:15:09.205Z,2.62
2023-03-10T19:17:37.730Z,2.66
2023-03-10T19:20:07.380Z,2.61
2023-03-10T19:22:35.169Z,2.63
2023-03-10T19:25:03.369Z,2.59
2023-03-10T19:27:31.325Z,2.50
2023-03-10T19:30:00.843Z,2.83
2023-03-10T19:32:29.050Z,2.68
2023-03-10T19:34:56.757Z,2.69
2023-03-10T19:37:24.384Z,2.71
2023-03-10T19:39:52.438Z,2.95
2023-03-10T19:42:20.086Z,2.99
2023-03-10T19:44:48.062Z,2.90
2023-03-10T19:47:19.194Z,3.05
2023-03-10T19:49:46.961Z,1.68
2023-03-10T19:52:14.603Z,1.38
2023-03-10T19:54:42.264Z,1.96
2023-03-10T19:57:13.109Z,2.07
2023-03-10T19:59:41.549Z,2.09
2023-03-10T20:02:12.689Z,1.98
2023-03-10T20:04:42.058Z,2.03
2023-03-10T20:07:09.889Z,1.59
2023-03-10T20:09:37.583Z,1.62
2023-03-10T20:12:05.743Z,1.58
2023-03-10T20:14:33.402Z,1.56
2023-03-10T20:17:01.093Z,1.58
2023-03-10T20:19:28.751Z,1.56
2023-03-10T20:21:57.751Z,1.66
2023-03-10T20:24:25.418Z,0.73
2023-03-10T20:26:53.048Z,0.46
2023-03-10T20:29:20.781Z,0.46
2023-03-10T20:31:48.491Z,2.16
2023-03-10T20:34:18.408Z,2.22
2023-03-10T20:36:46.138Z,2.29
2023-03-10T20:39:15.172Z,2.20
2023-03-10T20:41:45.004Z,2.38
2023-03-10T20:44:14.147Z,2.17
2023-03-10T20:46:42.715Z,2.12
2023-03-10T20:49:11.295Z,2.23
2023-03-10T20:51:39.642Z,2.36
2023-03-10T20:54:07.573Z,2.27
2023-03-10T20:56:36.722Z,2.39
2023-03-10T20:59:04.541Z,2.20
2023-03-10T21:01:32.424Z,2.32
2023-03-10T21:04:00.188Z,2.52
2023-03-10T21:06:28.944Z,2.47
2023-03-10T21:08:56.612Z,2.50
2023-03-10T21:11:24.312Z,2.50
2023-03-10T21:13:53.394Z,2.18
2023-03-10T21:16:21.435Z,2.44
2023-03-10T21:18:49.161Z,2.36
2023-03-10T21:21:16.856Z,2.25
2023-03-10T21:23:44.619Z,2.36
2023-03-10T21:26:13.449Z,2.33
2023-03-10T21:28:41.381Z,2.20
2023-03-10T21:31:10.476Z,2.27
2023-03-10T21:33:38.329Z,2.52
2023-03-10T21:36:06.708Z,2.79
2023-03-10T21:38:36.487Z,2.83
2023-03-10T21:41:05.590Z,2.91
2023-03-10T21:43:33.323Z,2.71
2023-03-10T21:46:01.044Z,2.93
2023-03-10T21:48:30.121Z,2.65
2023-03-10T21:50:57.813Z,2.55
2023-03-10T21:53:26.727Z,2.79
2023-03-10T21:55:54.876Z,2.82
2023-03-10T21:58:24.878Z,2.78
2023-03-10T22:00:55.711Z,2.90
2023-03-10T22:03:23.853Z,2.62
2023-03-10T22:05:53.024Z,2.50
2023-03-10T22:08:21.025Z,2.62
2023-03-10T22:10:48.841Z,2.35
2023-03-10T22:13:16.525Z,2.54
2023-03-10T22:15:44.404Z,2.65
2023-03-10T22:18:12.060Z,2.63
2023-03-10T22:20:39.784Z,2.62
2023-03-10T22:23:08.876Z,2.64
2023-03-10T22:25:36.632Z,2.55
2023-03-10T22:28:04.826Z,2.69
2023-03-10T22:30:32.641Z,2.50
2023-03-10T22:33:00.349Z,2.54
2023-03-10T22:35:28.043Z,2.43
2023-03-10T22:37:55.897Z,2.51
2023-03-10T22:40:26.186Z,2.58
2023-03-10T22:42:54.456Z,2.67
2023-03-10T22:45:23.756Z,2.58
2023-03-10T22:47:53.806Z,2.68
2023-03-10T22:50:23.458Z,2.61
2023-03-10T22:52:51.304Z,2.63
2023-03-10T22:55:23.535Z,2.66
2023-03-10T22:57:52.821Z,2.57
2023-03-10T23:00:22.230Z,2.83
2023-03-10T23:02:52.119Z,2.95
2023-03-10T23:05:20.061Z,2.78
2023-03-10T23:07:48.033Z,2.76
2023-03-10T23:10:18.432Z,2.68
2023-03-10T23:12:46.200Z,2.85
2023-03-10T23:15:24.932Z,2.63
2023-03-10T23:17:54.017Z,2.57
2023-03-10T23:20:24.256Z,2.86
2023-03-10T23:22:52.097Z,2.66
2023-03-10T23:25:25.271Z,2.54
2023-03-10T23:27:52.956Z,2.45
2023-03-10T23:30:22.099Z,2.16
2023-03-10T23:32:51.449Z,2.61
2023-03-10T23:35:21.397Z,2.81
2023-03-10T23:37:49.128Z,2.62
2023-03-10T23:40:18.242Z,2.49
2023-03-10T23:42:46.462Z,2.60
2023-03-10T23:45:15.818Z,2.69
2023-03-10T23:47:45.230Z,2.52
2023-03-10T23:50:17.685Z,2.34
2023-03-10T23:52:45.516Z,2.44
2023-03-10T23:55:14.773Z,2.28
2023-03-10T23:57:42.692Z,2.69
